sensor_id;sensor_type;location;lat;lon;timestamp;P1;durP1;ratioP1;P2;durP2;ratioP2
13801;SDS011;6972;51.518;6.918;2023-02-28T00:02:08;7.37;;;3.20;;
13801;SDS011;6972;51.518;6.918;2023-02-28T00:20:35;4.57;;;2.70;;
13801;SDS011;6972;51.518;6.918;2023-02-28T00:23:02;5.20;;;2.73;;
13801;SDS011;6972;51.518;6.918;2023-02-28T00:25:28;4.93;;;2.87;;
13801;SDS011;6972;51.518;6.918;2023-02-28T00:27:54;3.83;;;2.70;;
13801;SDS011;6972;51.518;6.918;2023-02-28T00:30:21;5.93;;;3.07;;
13801;SDS011;6972;51.518;6.918;2023-02-28T00:32:49;9.57;;;2.80;;
13801;SDS011;6972;51.518;6.918;2023-02-28T00:35:15;8.70;;;3.47;;
13801;SDS011;6972;51.518;6.918;2023-02-28T00:37:48;5.00;;;2.50;;
13801;SDS011;6972;51.518;6.918;2023-02-28T00:45:25;5.30;;;2.80;;
13801;SDS011;6972;51.518;6.918;2023-02-28T00:47:51;10.30;;;3.33;;
13801;SDS011;6972;51.518;6.918;2023-02-28T01:06:10;5.63;;;3.37;;
13801;SDS011;6972;51.518;6.918;2023-02-28T01:08:37;6.20;;;3.10;;
13801;SDS011;6972;51.518;6.918;2023-02-28T01:11:07;6.10;;;2.93;;
13801;SDS011;6972;51.518;6.918;2023-02-28T01:13:37;4.43;;;2.90;;
13801;SDS011;6972;51.518;6.918;2023-02-28T01:16:03;5.20;;;2.90;;
13801;SDS011;6972;51.518;6.918;2023-02-28T01:18:29;4.17;;;2.60;;
13801;SDS011;6972;51.518;6.918;2023-02-28T01:20:56;9.00;;;3.23;;
13801;SDS011;6972;51.518;6.918;2023-02-28T01:31:09;6.93;;;2.77;;
13801;SDS011;6972;51.518;6.918;2023-02-28T01:33:35;6.33;;;2.73;;
13801;SDS011;6972;51.518;6.918;2023-02-28T01:36:06;6.07;;;2.80;;
13801;SDS011;6972;51.518;6.918;2023-02-28T01:38:35;5.00;;;2.90;;
13801;SDS011;6972;51.518;6.918;2023-02-28T01:41:01;3.53;;;2.47;;
13801;SDS011;6972;51.518;6.918;2023-02-28T01:43:28;7.70;;;2.90;;
13801;SDS011;6972;51.518;6.918;2023-02-28T01:45:56;4.73;;;3.10;;
13801;SDS011;6972;51.518;6.918;2023-02-28T01:50:48;4.47;;;2.97;;
13801;SDS011;6972;51.518;6.918;2023-02-28T01:53:16;7.63;;;3.20;;
13801;SDS011;6972;51.518;6.918;2023-02-28T02:11:11;5.40;;;3.20;;
13801;SDS011;6972;51.518;6.918;2023-02-28T02:16:33;6.33;;;2.80;;
13801;SDS011;6972;51.518;6.918;2023-02-28T02:50:34;9.20;;;3.37;;
13801;SDS011;6972;51.518;6.918;2023-02-28T03:00:52;5.97;;;2.97;;
13801;SDS011;6972;51.518;6.918;2023-02-28T03:03:22;6.57;;;3.30;;
13801;SDS011;6972;51.518;6.918;2023-02-28T03:06:00;6.97;;;3.37;;
13801;SDS011;6972;51.518;6.918;2023-02-28T03:08:33;7.57;;;3.00;;
13801;SDS011;6972;51.518;6.918;2023-02-28T03:24:32;5.13;;;2.83;;
13801;SDS011;6972;51.518;6.918;2023-02-28T03:27:08;6.23;;;3.07;;
13801;SDS011;6972;51.518;6.918;2023-02-28T03:30:01;5.53;;;3.10;;
13801;SDS011;6972;51.518;6.918;2023-02-28T03:32:52;10.40;;;2.83;;
13801;SDS011;6972;51.518;6.918;2023-02-28T03:35:33;6.37;;;3.30;;
13801;SDS011;6972;51.518;6.918;2023-02-28T03:38:09;3.23;;;2.57;;
13801;SDS011;6972;51.518;6.918;2023-02-28T03:41:06;3.63;;;2.80;;
13801;SDS011;6972;51.518;6.918;2023-02-28T06:32:43;5.83;;;2.77;;
13801;SDS011;6972;51.518;6.918;2023-02-28T06:35:09;5.43;;;2.73;;
13801;SDS011;6972;51.518;6.918;2023-02-28T06:37:35;8.47;;;2.97;;
13801;SDS011;6972;51.518;6.918;2023-02-28T06:40:01;3.97;;;2.60;;
13801;SDS011;6972;51.518;6.918;2023-02-28T06:42:28;4.03;;;2.90;;
13801;SDS011;6972;51.518;6.918;2023-02-28T06:44:55;5.97;;;2.83;;
13801;SDS011;6972;51.518;6.918;2023-02-28T06:47:22;5.97;;;2.57;;
13801;SDS011;6972;51.518;6.918;2023-02-28T06:52:24;8.47;;;2.93;;
13801;SDS011;6972;51.518;6.918;2023-02-28T06:54:50;4.87;;;2.93;;
13801;SDS011;6972;51.518;6.918;2023-02-28T07:36:13;6.47;;;3.37;;
13801;SDS011;6972;51.518;6.918;2023-02-28T07:41:16;5.97;;;3.53;;
13801;SDS011;6972;51.518;6.918;2023-02-28T07:43:43;5.87;;;3.80;;
13801;SDS011;6972;51.518;6.918;2023-02-28T08:26:53;9.63;;;2.97;;
13801;SDS011;6972;51.518;6.918;2023-02-28T08:47:49;7.33;;;3.13;;
13801;SDS011;6972;51.518;6.918;2023-02-28T08:50:17;6.40;;;4.00;;
13801;SDS011;6972;51.518;6.918;2023-02-28T08:52:45;7.60;;;3.60;;
13801;SDS011;6972;51.518;6.918;2023-02-28T08:55:11;6.37;;;3.90;;
13801;SDS011;6972;51.518;6.918;2023-02-28T08:57:36;6.77;;;3.33;;
13801;SDS011;6972;51.518;6.918;2023-02-28T09:02:38;4.43;;;3.07;;
13801;SDS011;6972;51.518;6.918;2023-02-28T09:29:16;4.03;;;2.10;;
13801;SDS011;6972;51.518;6.918;2023-02-28T09:39:37;7.13;;;1.87;;
13801;SDS011;6972;51.518;6.918;2023-02-28T09:42:03;3.17;;;1.70;;
13801;SDS011;6972;51.518;6.918;2023-02-28T09:52:45;2.37;;;1.70;;
13801;SDS011;6972;51.518;6.918;2023-02-28T10:08:30;6.10;;;1.80;;
13801;SDS011;6972;51.518;6.918;2023-02-28T10:16:20;3.30;;;1.70;;
13801;SDS011;6972;51.518;6.918;2023-02-28T10:18:59;3.67;;;2.13;;
13801;SDS011;6972;51.518;6.918;2023-02-28T10:32:10;2.93;;;1.87;;
13801;SDS011;6972;51.518;6.918;2023-02-28T10:34:40;5.60;;;2.20;;
13801;SDS011;6972;51.518;6.918;2023-02-28T10:37:06;3.47;;;2.17;;
13801;SDS011;6972;51.518;6.918;2023-02-28T10:42:28;3.10;;;1.90;;
13801;SDS011;6972;51.518;6.918;2023-02-28T10:50:27;3.33;;;2.20;;
13801;SDS011;6972;51.518;6.918;2023-02-28T10:53:09;3.13;;;1.90;;
13801;SDS011;6972;51.518;6.918;2023-02-28T10:55:42;7.67;;;1.83;;
13801;SDS011;6972;51.518;6.918;2023-02-28T10:58:25;5.23;;;1.50;;
13801;SDS011;6972;51.518;6.918;2023-02-28T11:06:07;5.47;;;2.40;;
13801;SDS011;6972;51.518;6.918;2023-02-28T11:08:47;4.07;;;2.33;;
13801;SDS011;6972;51.518;6.918;2023-02-28T11:11:23;4.40;;;2.23;;
13801;SDS011;6972;51.518;6.918;2023-02-28T11:13:57;3.97;;;2.40;;
13801;SDS011;6972;51.518;6.918;2023-02-28T11:16:31;5.57;;;2.03;;
13801;SDS011;6972;51.518;6.918;2023-02-28T11:19:00;6.90;;;2.10;;
13801;SDS011;6972;51.518;6.918;2023-02-28T11:21:29;2.47;;;1.70;;
13801;SDS011;6972;51.518;6.918;2023-02-28T11:26:46;3.50;;;1.80;;
13801;SDS011;6972;51.518;6.918;2023-02-28T11:29:18;2.97;;;1.90;;
13801;SDS011;6972;51.518;6.918;2023-02-28T11:37:13;4.17;;;2.10;;
13801;SDS011;6972;51.518;6.918;2023-02-28T11:51:34;4.70;;;2.03;;
13801;SDS011;6972;51.518;6.918;2023-02-28T11:56:39;3.83;;;1.80;;
13801;SDS011;6972;51.518;6.918;2023-02-28T12:09:44;5.03;;;1.83;;
13801;SDS011;6972;51.518;6.918;2023-02-28T12:15:28;3.70;;;2.17;;
13801;SDS011;6972;51.518;6.918;2023-02-28T12:23:31;3.83;;;1.70;;
13801;SDS011;6972;51.518;6.918;2023-02-28T12:28:52;4.50;;;2.07;;
13801;SDS011;6972;51.518;6.918;2023-02-28T12:31:33;2.10;;;1.50;;
13801;SDS011;6972;51.518;6.918;2023-02-28T12:34:03;4.40;;;1.87;;
13801;SDS011;6972;51.518;6.918;2023-02-28T12:36:43;4.10;;;1.93;;
13801;SDS011;6972;51.518;6.918;2023-02-28T12:39:12;3.63;;;2.00;;
13801;SDS011;6972;51.518;6.918;2023-02-28T12:44:20;4.07;;;2.07;;
13801;SDS011;6972;51.518;6.918;2023-02-28T12:46:56;5.50;;;2.30;;
13801;SDS011;6972;51.518;6.918;2023-02-28T12:49:27;5.10;;;2.27;;
13801;SDS011;6972;51.518;6.918;2023-02-28T12:51:59;5.13;;;1.87;;
13801;SDS011;6972;51.518;6.918;2023-02-28T12:54:32;5.13;;;2.30;;
13801;SDS011;6972;51.518;6.918;2023-02-28T13:00:38;4.90;;;2.30;;
13801;SDS011;6972;51.518;6.918;2023-02-28T13:06:10;6.30;;;3.00;;
13801;SDS011;6972;51.518;6.918;2023-02-28T13:11:40;4.00;;;2.30;;
13801;SDS011;6972;51.518;6.918;2023-02-28T13:14:21;4.93;;;2.37;;
13801;SDS011;6972;51.518;6.918;2023-02-28T13:16:58;4.47;;;2.30;;
13801;SDS011;6972;51.518;6.918;2023-02-28T13:20:13;3.43;;;2.37;;
13801;SDS011;6972;51.518;6.918;2023-02-28T13:25:00;8.10;;;3.10;;
13801;SDS011;6972;51.518;6.918;2023-02-28T13:27:39;9.43;;;3.27;;
13801;SDS011;6972;51.518;6.918;2023-02-28T13:38:48;2.60;;;2.07;;
13801;SDS011;6972;51.518;6.918;2023-02-28T13:44:08;4.90;;;2.20;;
13801;SDS011;6972;51.518;6.918;2023-02-28T13:52:02;4.50;;;2.90;;
13801;SDS011;6972;51.518;6.918;2023-02-28T13:57:44;4.77;;;1.90;;
13801;SDS011;6972;51.518;6.918;2023-02-28T14:11:49;5.87;;;2.60;;
13801;SDS011;6972;51.518;6.918;2023-02-28T14:17:01;8.13;;;2.43;;
13801;SDS011;6972;51.518;6.918;2023-02-28T14:19:30;5.33;;;2.30;;
13801;SDS011;6972;51.518;6.918;2023-02-28T14:41:20;2.90;;;2.00;;
13801;SDS011;6972;51.518;6.918;2023-02-28T14:43:58;5.73;;;2.40;;
13801;SDS011;6972;51.518;6.918;2023-02-28T14:46:37;5.10;;;2.30;;
13801;SDS011;6972;51.518;6.918;2023-02-28T14:49:05;4.00;;;2.37;;
13801;SDS011;6972;51.518;6.918;2023-02-28T14:51:37;10.17;;;2.37;;
13801;SDS011;6972;51.518;6.918;2023-02-28T14:54:03;2.63;;;2.03;;
13801;SDS011;6972;51.518;6.918;2023-02-28T14:56:32;4.30;;;2.60;;
13801;SDS011;6972;51.518;6.918;2023-02-28T14:59:02;3.63;;;2.13;;
13801;SDS011;6972;51.518;6.918;2023-02-28T15:01:28;3.97;;;2.70;;
13801;SDS011;6972;51.518;6.918;2023-02-28T15:03:58;4.77;;;2.57;;
13801;SDS011;6972;51.518;6.918;2023-02-28T15:06:26;3.60;;;2.63;;
13801;SDS011;6972;51.518;6.918;2023-02-28T15:09:14;3.03;;;2.30;;
13801;SDS011;6972;51.518;6.918;2023-02-28T15:11:41;4.07;;;2.90;;
13801;SDS011;6972;51.518;6.918;2023-02-28T15:14:16;4.40;;;2.33;;
13801;SDS011;6972;51.518;6.918;2023-02-28T15:16:44;6.70;;;2.50;;
13801;SDS011;6972;51.518;6.918;2023-02-28T15:19:25;8.17;;;2.70;;
13801;SDS011;6972;51.518;6.918;2023-02-28T15:22:04;7.27;;;2.67;;
13801;SDS011;6972;51.518;6.918;2023-02-28T15:27:06;3.27;;;2.17;;
13801;SDS011;6972;51.518;6.918;2023-02-28T15:29:48;3.87;;;2.10;;
13801;SDS011;6972;51.518;6.918;2023-02-28T15:35:20;3.17;;;2.17;;
13801;SDS011;6972;51.518;6.918;2023-02-28T15:40:27;3.30;;;2.27;;
13801;SDS011;6972;51.518;6.918;2023-02-28T15:45:27;4.00;;;2.13;;
13801;SDS011;6972;51.518;6.918;2023-02-28T15:47:57;6.40;;;2.50;;
13801;SDS011;6972;51.518;6.918;2023-02-28T15:50:27;4.53;;;2.40;;
13801;SDS011;6972;51.518;6.918;2023-02-28T15:52:56;6.47;;;2.40;;
13801;SDS011;6972;51.518;6.918;2023-02-28T15:55:23;3.17;;;2.33;;
13801;SDS011;6972;51.518;6.918;2023-02-28T15:57:53;3.70;;;2.33;;
13801;SDS011;6972;51.518;6.918;2023-02-28T16:00:25;3.83;;;2.27;;
13801;SDS011;6972;51.518;6.918;2023-02-28T16:05:26;7.03;;;4.43;;
13801;SDS011;6972;51.518;6.918;2023-02-28T16:07:58;6.50;;;3.60;;
13801;SDS011;6972;51.518;6.918;2023-02-28T16:10:26;8.73;;;4.87;;
13801;SDS011;6972;51.518;6.918;2023-02-28T16:12:56;6.90;;;4.47;;
13801;SDS011;6972;51.518;6.918;2023-02-28T16:15:26;8.17;;;4.87;;
13801;SDS011;6972;51.518;6.918;2023-02-28T16:17:54;4.73;;;2.80;;
13801;SDS011;6972;51.518;6.918;2023-02-28T16:20:25;5.40;;;2.77;;
13801;SDS011;6972;51.518;6.918;2023-02-28T16:22:55;5.13;;;2.60;;
13801;SDS011;6972;51.518;6.918;2023-02-28T16:25:54;4.30;;;2.53;;
13801;SDS011;6972;51.518;6.918;2023-02-28T16:28:30;4.87;;;2.90;;
13801;SDS011;6972;51.518;6.918;2023-02-28T16:30:59;4.83;;;2.57;;
13801;SDS011;6972;51.518;6.918;2023-02-28T16:33:27;5.97;;;2.60;;
13801;SDS011;6972;51.518;6.918;2023-02-28T16:35:54;6.50;;;2.70;;
13801;SDS011;6972;51.518;6.918;2023-02-28T16:38:19;5.10;;;2.50;;
13801;SDS011;6972;51.518;6.918;2023-02-28T16:40:46;4.87;;;2.80;;
13801;SDS011;6972;51.518;6.918;2023-02-28T16:43:16;6.67;;;3.00;;
13801;SDS011;6972;51.518;6.918;2023-02-28T16:45:44;5.13;;;2.93;;
13801;SDS011;6972;51.518;6.918;2023-02-28T16:48:14;5.73;;;3.07;;
13801;SDS011;6972;51.518;6.918;2023-02-28T16:50:41;4.90;;;3.00;;
13801;SDS011;6972;51.518;6.918;2023-02-28T16:53:09;4.67;;;2.77;;
13801;SDS011;6972;51.518;6.918;2023-02-28T16:55:35;7.80;;;3.07;;
13801;SDS011;6972;51.518;6.918;2023-02-28T16:58:01;4.13;;;2.80;;
13801;SDS011;6972;51.518;6.918;2023-02-28T17:00:28;5.73;;;2.97;;
13801;SDS011;6972;51.518;6.918;2023-02-28T17:02:56;6.37;;;2.73;;
13801;SDS011;6972;51.518;6.918;2023-02-28T17:05:24;6.93;;;3.53;;
13801;SDS011;6972;51.518;6.918;2023-02-28T17:07:54;9.60;;;4.53;;
13801;SDS011;6972;51.518;6.918;2023-02-28T17:10:23;4.43;;;2.90;;
13801;SDS011;6972;51.518;6.918;2023-02-28T17:12:50;5.73;;;3.17;;
13801;SDS011;6972;51.518;6.918;2023-02-28T17:15:17;5.40;;;3.33;;
13801;SDS011;6972;51.518;6.918;2023-02-28T17:17:44;5.13;;;3.13;;
13801;SDS011;6972;51.518;6.918;2023-02-28T17:20:12;5.83;;;3.37;;
13801;SDS011;6972;51.518;6.918;2023-02-28T17:22:38;6.53;;;3.73;;
13801;SDS011;6972;51.518;6.918;2023-02-28T17:25:05;6.73;;;3.83;;
13801;SDS011;6972;51.518;6.918;2023-02-28T17:27:31;7.83;;;3.53;;
13801;SDS011;6972;51.518;6.918;2023-02-28T17:29:57;6.53;;;4.07;;
13801;SDS011;6972;51.518;6.918;2023-02-28T17:32:23;9.70;;;4.53;;
13801;SDS011;6972;51.518;6.918;2023-02-28T17:34:49;7.30;;;4.03;;
13801;SDS011;6972;51.518;6.918;2023-02-28T17:37:15;7.63;;;4.50;;
13801;SDS011;6972;51.518;6.918;2023-02-28T17:39:41;6.07;;;3.87;;
13801;SDS011;6972;51.518;6.918;2023-02-28T17:42:07;11.17;;;4.40;;
13801;SDS011;6972;51.518;6.918;2023-02-28T17:44:33;8.50;;;4.43;;
13801;SDS011;6972;51.518;6.918;2023-02-28T17:46:59;7.97;;;4.37;;
13801;SDS011;6972;51.518;6.918;2023-02-28T17:49:25;6.27;;;3.93;;
13801;SDS011;6972;51.518;6.918;2023-02-28T17:51:51;5.87;;;3.70;;
13801;SDS011;6972;51.518;6.918;2023-02-28T17:54:16;12.23;;;4.20;;
13801;SDS011;6972;51.518;6.918;2023-02-28T17:56:42;9.27;;;4.17;;
13801;SDS011;6972;51.518;6.918;2023-02-28T17:59:09;5.30;;;3.70;;
13801;SDS011;6972;51.518;6.918;2023-02-28T18:01:35;6.20;;;3.33;;
13801;SDS011;6972;51.518;6.918;2023-02-28T18:04:01;8.57;;;3.90;;
13801;SDS011;6972;51.518;6.918;2023-02-28T18:06:28;7.80;;;4.27;;
13801;SDS011;6972;51.518;6.918;2023-02-28T18:08:58;6.10;;;4.00;;
13801;SDS011;6972;51.518;6.918;2023-02-28T18:11:24;6.13;;;3.83;;
13801;SDS011;6972;51.518;6.918;2023-02-28T18:14:05;5.83;;;4.10;;
13801;SDS011;6972;51.518;6.918;2023-02-28T18:16:32;8.30;;;4.30;;
13801;SDS011;6972;51.518;6.918;2023-02-28T18:18:58;8.77;;;4.47;;
13801;SDS011;6972;51.518;6.918;2023-02-28T18:21:26;10.60;;;5.03;;
13801;SDS011;6972;51.518;6.918;2023-02-28T18:23:53;11.03;;;5.70;;
13801;SDS011;6972;51.518;6.918;2023-02-28T18:26:19;8.47;;;5.00;;
13801;SDS011;6972;51.518;6.918;2023-02-28T18:28:44;10.00;;;5.00;;
13801;SDS011;6972;51.518;6.918;2023-02-28T18:31:12;10.23;;;4.93;;
13801;SDS011;6972;51.518;6.918;2023-02-28T18:33:42;7.73;;;4.47;;
13801;SDS011;6972;51.518;6.918;2023-02-28T18:36:09;10.73;;;4.47;;
13801;SDS011;6972;51.518;6.918;2023-02-28T18:38:35;7.23;;;4.07;;
13801;SDS011;6972;51.518;6.918;2023-02-28T18:41:03;6.63;;;4.10;;
13801;SDS011;6972;51.518;6.918;2023-02-28T18:43:31;8.57;;;4.73;;
13801;SDS011;6972;51.518;6.918;2023-02-28T18:46:02;7.53;;;3.90;;
13801;SDS011;6972;51.518;6.918;2023-02-28T18:48:32;7.90;;;3.93;;
13801;SDS011;6972;51.518;6.918;2023-02-28T18:50:58;7.77;;;3.93;;
13801;SDS011;6972;51.518;6.918;2023-02-28T18:53:24;12.40;;;4.73;;
13801;SDS011;6972;51.518;6.918;2023-02-28T18:55:50;8.10;;;4.00;;
13801;SDS011;6972;51.518;6.918;2023-02-28T18:58:15;8.63;;;4.47;;
13801;SDS011;6972;51.518;6.918;2023-02-28T19:00:41;11.27;;;4.60;;
13801;SDS011;6972;51.518;6.918;2023-02-28T19:03:08;8.67;;;4.60;;
13801;SDS011;6972;51.518;6.918;2023-02-28T19:05:36;9.47;;;4.83;;
13801;SDS011;6972;51.518;6.918;2023-02-28T19:08:02;8.70;;;4.87;;
13801;SDS011;6972;51.518;6.918;2023-02-28T19:10:29;7.27;;;4.40;;
13801;SDS011;6972;51.518;6.918;2023-02-28T19:12:54;7.30;;;4.07;;
13801;SDS011;6972;51.518;6.918;2023-02-28T19:15:20;8.90;;;4.30;;
13801;SDS011;6972;51.518;6.918;2023-02-28T19:17:46;8.27;;;4.80;;
13801;SDS011;6972;51.518;6.918;2023-02-28T19:20:12;7.37;;;3.67;;
13801;SDS011;6972;51.518;6.918;2023-02-28T19:22:38;6.13;;;4.07;;
13801;SDS011;6972;51.518;6.918;2023-02-28T19:25:04;6.60;;;4.33;;
13801;SDS011;6972;51.518;6.918;2023-02-28T19:27:30;9.73;;;4.43;;
13801;SDS011;6972;51.518;6.918;2023-02-28T19:29:56;8.50;;;4.37;;
13801;SDS011;6972;51.518;6.918;2023-02-28T19:32:23;6.50;;;4.20;;
13801;SDS011;6972;51.518;6.918;2023-02-28T19:34:49;8.13;;;4.70;;
13801;SDS011;6972;51.518;6.918;2023-02-28T19:37:15;5.87;;;4.00;;
13801;SDS011;6972;51.518;6.918;2023-02-28T19:39:44;10.33;;;4.53;;
13801;SDS011;6972;51.518;6.918;2023-02-28T19:42:11;9.47;;;5.00;;
13801;SDS011;6972;51.518;6.918;2023-02-28T19:44:38;10.67;;;4.90;;
13801;SDS011;6972;51.518;6.918;2023-02-28T19:47:04;10.30;;;5.20;;
13801;SDS011;6972;51.518;6.918;2023-02-28T19:49:31;9.87;;;5.80;;
13801;SDS011;6972;51.518;6.918;2023-02-28T19:51:57;10.40;;;4.93;;
13801;SDS011;6972;51.518;6.918;2023-02-28T19:54:24;7.90;;;4.83;;
13801;SDS011;6972;51.518;6.918;2023-02-28T19:59:20;10.30;;;4.80;;
13801;SDS011;6972;51.518;6.918;2023-02-28T20:01:46;8.03;;;4.37;;
13801;SDS011;6972;51.518;6.918;2023-02-28T20:04:11;7.57;;;4.43;;
13801;SDS011;6972;51.518;6.918;2023-02-28T20:06:37;7.57;;;3.97;;
13801;SDS011;6972;51.518;6.918;2023-02-28T20:09:04;8.33;;;4.30;;
13801;SDS011;6972;51.518;6.918;2023-02-28T20:11:29;6.77;;;3.97;;
13801;SDS011;6972;51.518;6.918;2023-02-28T20:13:55;10.70;;;4.10;;
13801;SDS011;6972;51.518;6.918;2023-02-28T20:16:21;7.93;;;4.30;;
13801;SDS011;6972;51.518;6.918;2023-02-28T20:18:48;5.67;;;3.80;;
13801;SDS011;6972;51.518;6.918;2023-02-28T20:21:18;6.33;;;3.90;;
13801;SDS011;6972;51.518;6.918;2023-02-28T20:26:12;5.70;;;3.60;;
13801;SDS011;6972;51.518;6.918;2023-02-28T20:28:38;6.53;;;4.27;;
13801;SDS011;6972;51.518;6.918;2023-02-28T20:31:11;11.67;;;4.37;;
13801;SDS011;6972;51.518;6.918;2023-02-28T20:33:42;7.17;;;4.03;;
13801;SDS011;6972;51.518;6.918;2023-02-28T20:36:08;8.47;;;4.27;;
13801;SDS011;6972;51.518;6.918;2023-02-28T20:38:36;8.83;;;4.23;;
13801;SDS011;6972;51.518;6.918;2023-02-28T20:41:04;10.00;;;4.70;;
13801;SDS011;6972;51.518;6.918;2023-02-28T20:43:30;8.67;;;4.77;;
13801;SDS011;6972;51.518;6.918;2023-02-28T20:45:57;6.40;;;4.20;;
13801;SDS011;6972;51.518;6.918;2023-02-28T20:48:25;6.93;;;3.93;;
13801;SDS011;6972;51.518;6.918;2023-02-28T20:50:52;7.90;;;4.40;;
13801;SDS011;6972;51.518;6.918;2023-02-28T20:53:20;7.33;;;4.33;;
13801;SDS011;6972;51.518;6.918;2023-02-28T20:55:59;8.97;;;5.33;;
13801;SDS011;6972;51.518;6.918;2023-02-28T20:58:27;10.00;;;4.00;;
13801;SDS011;6972;51.518;6.918;2023-02-28T21:01:02;8.00;;;4.00;;
13801;SDS011;6972;51.518;6.918;2023-02-28T21:03:29;8.13;;;4.10;;
13801;SDS011;6972;51.518;6.918;2023-02-28T21:06:02;6.53;;;3.97;;
13801;SDS011;6972;51.518;6.918;2023-02-28T21:08:28;7.70;;;4.07;;
13801;SDS011;6972;51.518;6.918;2023-02-28T21:10:54;9.47;;;4.20;;
13801;SDS011;6972;51.518;6.918;2023-02-28T21:13:19;8.53;;;4.47;;
13801;SDS011;6972;51.518;6.918;2023-02-28T21:15:45;7.77;;;4.10;;
13801;SDS011;6972;51.518;6.918;2023-02-28T21:18:11;9.53;;;4.57;;
13801;SDS011;6972;51.518;6.918;2023-02-28T21:23:13;7.00;;;4.10;;
13801;SDS011;6972;51.518;6.918;2023-02-28T21:25:39;6.97;;;4.40;;
13801;SDS011;6972;51.518;6.918;2023-02-28T21:28:05;7.57;;;4.73;;
13801;SDS011;6972;51.518;6.918;2023-02-28T21:30:31;8.90;;;4.50;;
13801;SDS011;6972;51.518;6.918;2023-02-28T21:32:57;7.30;;;4.63;;
13801;SDS011;6972;51.518;6.918;2023-02-28T21:35:23;8.03;;;4.33;;
13801;SDS011;6972;51.518;6.918;2023-02-28T21:37:49;8.03;;;4.80;;
13801;SDS011;6972;51.518;6.918;2023-02-28T21:40:15;13.20;;;4.77;;
13801;SDS011;6972;51.518;6.918;2023-02-28T21:42:42;8.43;;;4.40;;
13801;SDS011;6972;51.518;6.918;2023-02-28T21:45:08;9.63;;;4.63;;
13801;SDS011;6972;51.518;6.918;2023-02-28T21:47:34;10.03;;;4.37;;
13801;SDS011;6972;51.518;6.918;2023-02-28T21:50:00;7.93;;;4.43;;
13801;SDS011;6972;51.518;6.918;2023-02-28T21:52:26;10.40;;;4.47;;
13801;SDS011;6972;51.518;6.918;2023-02-28T21:54:51;8.50;;;4.67;;
13801;SDS011;6972;51.518;6.918;2023-02-28T21:57:17;7.17;;;4.50;;
13801;SDS011;6972;51.518;6.918;2023-02-28T21:59:43;8.47;;;4.90;;
13801;SDS011;6972;51.518;6.918;2023-02-28T22:02:09;8.63;;;5.00;;
13801;SDS011;6972;51.518;6.918;2023-02-28T22:04:35;8.97;;;4.50;;
13801;SDS011;6972;51.518;6.918;2023-02-28T22:07:02;9.60;;;5.00;;
13801;SDS011;6972;51.518;6.918;2023-02-28T22:09:28;7.70;;;4.87;;
13801;SDS011;6972;51.518;6.918;2023-02-28T22:11:54;7.80;;;4.73;;
13801;SDS011;6972;51.518;6.918;2023-02-28T22:14:20;8.13;;;5.27;;
13801;SDS011;6972;51.518;6.918;2023-02-28T22:16:47;7.50;;;4.97;;
13801;SDS011;6972;51.518;6.918;2023-02-28T22:19:13;9.63;;;4.80;;
13801;SDS011;6972;51.518;6.918;2023-02-28T22:21:39;7.90;;;4.77;;
13801;SDS011;6972;51.518;6.918;2023-02-28T22:24:05;9.20;;;5.17;;
13801;SDS011;6972;51.518;6.918;2023-02-28T22:29:08;8.63;;;4.67;;
13801;SDS011;6972;51.518;6.918;2023-02-28T22:31:34;6.10;;;4.27;;
13801;SDS011;6972;51.518;6.918;2023-02-28T22:34:03;13.93;;;4.87;;
13801;SDS011;6972;51.518;6.918;2023-02-28T22:36:30;8.43;;;5.10;;
13801;SDS011;6972;51.518;6.918;2023-02-28T22:38:56;8.93;;;5.40;;
13801;SDS011;6972;51.518;6.918;2023-02-28T22:41:24;10.10;;;5.90;;
13801;SDS011;6972;51.518;6.918;2023-02-28T22:43:55;9.30;;;5.77;;
13801;SDS011;6972;51.518;6.918;2023-02-28T22:46:23;8.80;;;5.60;;
13801;SDS011;6972;51.518;6.918;2023-02-28T22:48:49;10.10;;;5.73;;
13801;SDS011;6972;51.518;6.918;2023-02-28T22:51:20;10.17;;;4.93;;
13801;SDS011;6972;51.518;6.918;2023-02-28T22:53:48;8.07;;;4.50;;
13801;SDS011;6972;51.518;6.918;2023-02-28T22:56:15;11.77;;;6.00;;
13801;SDS011;6972;51.518;6.918;2023-02-28T22:58:42;13.13;;;5.90;;
13801;SDS011;6972;51.518;6.918;2023-02-28T23:01:12;8.17;;;5.00;;
13801;SDS011;6972;51.518;6.918;2023-02-28T23:03:39;11.10;;;5.67;;
13801;SDS011;6972;51.518;6.918;2023-02-28T23:06:27;11.07;;;6.10;;
13801;SDS011;6972;51.518;6.918;2023-02-28T23:08:57;8.30;;;5.40;;
13801;SDS011;6972;51.518;6.918;2023-02-28T23:11:26;9.97;;;5.83;;
13801;SDS011;6972;51.518;6.918;2023-02-28T23:13:53;6.80;;;5.03;;
13801;SDS011;6972;51.518;6.918;2023-02-28T23:19:26;8.03;;;4.80;;
13801;SDS011;6972;51.518;6.918;2023-02-28T23:21:55;7.70;;;5.07;;
13801;SDS011;6972;51.518;6.918;2023-02-28T23:24:22;11.27;;;5.57;;
13801;SDS011;6972;51.518;6.918;2023-02-28T23:26:50;6.80;;;5.10;;
13801;SDS011;6972;51.518;6.918;2023-02-28T23:29:19;9.23;;;5.40;;
13801;SDS011;6972;51.518;6.918;2023-02-28T23:31:45;9.87;;;5.93;;
13801;SDS011;6972;51.518;6.918;2023-02-28T23:34:11;9.70;;;5.90;;
13801;SDS011;6972;51.518;6.918;2023-02-28T23:36:38;8.37;;;5.27;;
13801;SDS011;6972;51.518;6.918;2023-02-28T23:39:09;11.10;;;5.83;;
13801;SDS011;6972;51.518;6.918;2023-02-28T23:41:36;10.17;;;5.87;;
13801;SDS011;6972;51.518;6.918;2023-02-28T23:44:01;8.23;;;5.70;;
13801;SDS011;6972;51.518;6.918;2023-02-28T23:46:28;8.60;;;4.90;;
13801;SDS011;6972;51.518;6.918;2023-02-28T23:48:53;12.63;;;5.77;;
13801;SDS011;6972;51.518;6.918;2023-02-28T23:51:20;10.03;;;5.57;;
13801;SDS011;6972;51.518;6.918;2023-02-28T23:53:47;10.93;;;6.30;;
13801;SDS011;6972;51.518;6.918;2023-02-28T23:56:16;9.67;;;5.73;;
13801;SDS011;6972;51.518;6.918;2023-02-28T23:58:46;9.37;;;5.67;;
